createdAt,value
2023-08-13T00:00:52.115Z,101679.63
2023-08-13T00:05:55.106Z,101679.50
2023-08-13T00:10:59.451Z,101683.06
2023-08-13T00:16:02.466Z,101676.69
2023-08-13T00:21:05.542Z,101674.03
2023-08-13T00:26:09.964Z,101674.84
2023-08-13T00:31:13.008Z,101678.34
2023-08-13T00:36:16.359Z,101674.72
2023-08-13T00:41:20.922Z,101671.97
2023-08-13T00:46:24.204Z,101687.16
2023-08-13T00:51:27.591Z,101671.94
2023-08-13T00:56:32.031Z,101674.53
2023-08-13T01:01:35.207Z,101676.22
2023-08-13T01:06:48.585Z,101662.72
2023-08-13T01:12:02.106Z,101668.03
2023-08-13T01:17:09.171Z,101662.56
2023-08-13T01:22:12.586Z,101672.22
2023-08-13T01:27:25.139Z,101669.41
2023-08-13T01:32:33.706Z,101671.09
2023-08-13T01:37:37.226Z,101672.75
2023-08-13T01:42:41.600Z,101678.00
2023-08-13T01:47:44.765Z,101668.09
2023-08-13T01:52:48.034Z,101671.66
2023-08-13T01:57:52.732Z,101670.69
2023-08-13T02:02:56.545Z,101657.34
2023-08-13T02:07:59.741Z,101668.81
2023-08-13T02:13:04.437Z,101656.22
2023-08-13T02:18:07.769Z,101663.22
2023-08-13T02:23:11.770Z,101658.75
2023-08-13T02:28:16.176Z,101646.25
2023-08-13T02:33:19.240Z,101656.78
2023-08-13T02:38:22.373Z,101648.78
2023-08-13T02:43:30.422Z,101657.63
2023-08-13T02:48:33.715Z,101656.66
2023-08-13T02:53:36.950Z,101656.50
2023-08-13T02:58:41.397Z,101658.19
2023-08-13T03:03:52.198Z,101653.63
2023-08-13T03:08:56.550Z,101643.84
2023-08-13T03:14:01.112Z,101639.22
2023-08-13T03:19:04.584Z,101654.22
2023-08-13T03:24:08.716Z,101648.84
2023-08-13T03:29:13.368Z,101645.19
2023-08-13T03:34:16.744Z,101646.94
2023-08-13T03:39:19.840Z,101638.84
2023-08-13T03:44:24.362Z,101649.44
2023-08-13T03:49:27.455Z,101654.75
2023-08-13T03:54:31.073Z,101647.59
2023-08-13T03:59:35.685Z,101655.56
2023-08-13T04:04:40.189Z,101653.81
2023-08-13T04:09:44.034Z,101642.19
2023-08-13T04:14:48.534Z,101659.94
2023-08-13T04:19:52.413Z,101655.47
2023-08-13T04:24:55.564Z,101666.88
2023-08-13T04:30:05.664Z,101666.81
2023-08-13T04:35:09.449Z,101671.22
2023-08-13T04:40:13.310Z,101670.31
2023-08-13T04:45:18.757Z,101671.28
2023-08-13T04:50:22.417Z,101668.59
2023-08-13T04:55:25.617Z,101659.88
2023-08-13T05:00:30.679Z,101661.72
2023-08-13T05:05:33.981Z,101669.75
2023-08-13T05:10:37.229Z,101664.44
2023-08-13T05:15:44.672Z,101669.81
2023-08-13T05:20:49.222Z,101649.53
2023-08-13T05:25:52.365Z,101663.88
2023-08-13T05:30:57.931Z,101662.31
2023-08-13T05:36:01.068Z,101662.25
2023-08-13T05:41:07.348Z,101669.13
2023-08-13T05:46:12.004Z,101665.59
2023-08-13T05:51:15.471Z,101673.63
2023-08-13T05:56:19.193Z,101668.41
2023-08-13T06:01:23.549Z,101675.78
2023-08-13T06:06:26.680Z,101684.09
2023-08-13T06:11:29.733Z,101684.50
2023-08-13T06:16:34.160Z,101682.34
2023-08-13T06:21:37.256Z,101678.31
2023-08-13T06:26:40.380Z,101687.50
2023-08-13T06:31:44.932Z,101679.66
2023-08-13T06:36:48.014Z,101685.34
2023-08-13T06:41:51.091Z,101688.06
2023-08-13T06:46:56.908Z,101677.38
2023-08-13T06:51:59.957Z,101693.66
2023-08-13T06:57:03.231Z,101696.75
2023-08-13T07:02:07.752Z,101693.63
2023-08-13T07:07:10.778Z,101704.47
2023-08-13T07:12:16.683Z,101684.13
2023-08-13T07:17:21.409Z,101689.50
2023-08-13T07:22:24.688Z,101694.19
2023-08-13T07:27:27.973Z,101688.34
2023-08-13T07:32:32.688Z,101686.09
2023-08-13T07:37:35.770Z,101690.88
2023-08-13T07:42:40.899Z,101684.09
2023-08-13T07:47:46.863Z,101688.72
2023-08-13T07:52:51.475Z,101690.63
2023-08-13T07:57:54.751Z,101680.03
2023-08-13T08:02:59.319Z,101671.19
2023-08-13T08:08:02.976Z,101678.44
2023-08-13T08:13:06.466Z,101682.03
2023-08-13T08:18:11.005Z,101680.28
2023-08-13T08:23:15.275Z,101692.75
2023-08-13T08:28:18.469Z,101683.88
2023-08-13T08:33:24.701Z,101689.22
2023-08-13T08:38:30.100Z,101678.50
2023-08-13T08:43:33.430Z,101675.81
2023-08-13T08:48:38.542Z,101679.38
2023-08-13T08:53:42.749Z,101690.09
2023-08-13T08:58:45.816Z,101676.69
2023-08-13T09:03:50.608Z,101664.22
2023-08-13T09:08:54.420Z,101662.38
2023-08-13T09:13:57.464Z,101659.53
2023-08-13T09:19:13.254Z,101660.34
2023-08-13T09:24:19.519Z,101657.56
2023-08-13T09:29:25.219Z,101659.31
2023-08-13T09:34:31.132Z,101637.78
2023-08-13T09:39:35.387Z,101644.09
2023-08-13T09:44:39.337Z,101630.78
2023-08-13T09:49:44.920Z,101632.31
2023-08-13T09:54:49.363Z,101634.63
2023-08-13T09:59:53.870Z,101626.81
2023-08-13T10:04:58.830Z,101622.97
2023-08-13T10:10:08.255Z,101625.16
2023-08-13T10:15:12.308Z,101614.09
2023-08-13T10:20:19.349Z,101619.94
2023-08-13T10:25:30.174Z,101607.91
2023-08-13T10:30:33.841Z,101613.69
2023-08-13T10:35:40.366Z,101619.09
2023-08-13T10:41:03.574Z,101612.03
2023-08-13T10:46:07.515Z,101600.78
2023-08-13T10:51:12.213Z,101603.44
2023-08-13T10:56:19.891Z,101595.34
2023-08-13T11:01:22.969Z,101601.13
2023-08-13T11:06:29.340Z,101595.72
2023-08-13T11:11:32.445Z,101587.59
2023-08-13T11:16:37.044Z,101580.31
2023-08-13T11:21:41.716Z,101596.09
2023-08-13T11:26:45.561Z,101593.06
2023-08-13T11:31:49.753Z,101573.63
2023-08-13T11:36:56.713Z,101570.78
2023-08-13T11:42:09.469Z,101587.34
2023-08-13T11:47:14.105Z,101586.41
2023-08-13T11:52:22.176Z,101576.97
2023-08-13T11:57:25.349Z,101581.38
2023-08-13T12:02:28.482Z,101576.53
2023-08-13T12:07:41.613Z,101575.31
2023-08-13T12:12:46.113Z,101578.06
2023-08-13T12:17:49.277Z,101565.34
2023-08-13T12:22:53.928Z,101558.88
2023-08-13T12:27:57.168Z,101555.56
2023-08-13T12:33:00.368Z,101562.63
2023-08-13T12:38:04.982Z,101550.44
2023-08-13T12:43:08.019Z,101539.25
2023-08-13T12:48:11.275Z,101539.53
2023-08-13T12:53:15.725Z,101538.28
2023-08-13T12:58:18.858Z,101528.94
2023-08-13T13:03:21.946Z,101532.91
2023-08-13T13:08:28.333Z,101535.31
2023-08-13T13:13:33.311Z,101541.00
2023-08-13T13:18:36.680Z,101534.41
2023-08-13T13:23:41.140Z,101535.44
2023-08-13T13:28:44.344Z,101548.47
2023-08-13T13:33:47.554Z,101556.91
2023-08-13T13:38:52.011Z,101568.63
2023-08-13T13:43:55.012Z,101560.59
2023-08-13T13:48:58.164Z,101576.28
2023-08-13T13:54:02.637Z,101571.50
2023-08-13T13:59:07.162Z,101569.63
2023-08-13T14:04:10.448Z,101573.81
2023-08-13T14:09:16.944Z,101566.63
2023-08-13T14:14:20.711Z,101563.03
2023-08-13T14:19:23.957Z,101557.53
2023-08-13T14:24:28.506Z,101565.84
2023-08-13T14:29:32.182Z,101557.06
2023-08-13T14:34:35.386Z,101554.22
2023-08-13T14:39:39.833Z,101555.66
2023-08-13T14:44:43.149Z,101558.34
2023-08-13T14:49:49.149Z,101564.66
2023-08-13T14:54:53.781Z,101556.50
2023-08-13T14:59:56.929Z,101552.91
2023-08-13T15:05:00.024Z,101555.63
2023-08-13T15:10:07.017Z,101551.47
2023-08-13T15:15:12.078Z,101549.47
2023-08-13T15:20:15.559Z,101556.81
2023-08-13T15:25:20.543Z,101548.59
2023-08-13T15:30:24.059Z,101556.53
2023-08-13T15:35:27.190Z,101551.28
2023-08-13T15:40:31.676Z,101546.47
2023-08-13T15:45:34.763Z,101556.09
2023-08-13T15:50:37.954Z,101537.22
2023-08-13T15:55:42.896Z,101533.53
2023-08-13T16:00:46.267Z,101536.03
2023-08-13T16:05:51.754Z,101548.97
2023-08-13T16:11:00.182Z,101531.28
2023-08-13T16:16:03.273Z,101539.41
2023-08-13T16:21:06.497Z,101534.69
2023-08-13T16:26:11.148Z,101530.88
2023-08-13T16:31:14.304Z,101534.78
2023-08-13T16:36:18.043Z,101526.59
2023-08-13T16:41:22.565Z,101526.81
2023-08-13T16:46:25.899Z,101520.88
2023-08-13T16:51:29.139Z,101517.66
2023-08-13T16:56:36.759Z,101519.91
2023-08-13T17:01:39.941Z,101526.63
2023-08-13T17:06:43.193Z,101528.41
2023-08-13T17:11:47.610Z,101528.72
2023-08-13T17:16:50.622Z,101524.50
2023-08-13T17:21:53.605Z,101527.25
2023-08-13T17:27:02.771Z,101518.03
2023-08-13T17:32:07.866Z,101515.88
2023-08-13T17:37:11.428Z,101519.25
2023-08-13T17:42:15.903Z,101518.25
2023-08-13T17:47:19.466Z,101521.06
2023-08-13T17:52:22.601Z,101516.25
2023-08-13T17:57:27.316Z,101512.88
2023-08-13T18:02:30.727Z,101512.19
2023-08-13T18:07:33.963Z,101522.97
2023-08-13T18:12:38.777Z,101523.94
2023-08-13T18:17:42.206Z,101525.75
2023-08-13T18:22:45.616Z,101527.66
2023-08-13T18:27:50.163Z,101535.03
2023-08-13T18:32:53.389Z,101535.28
2023-08-13T18:37:57.962Z,101550.72
2023-08-13T18:43:03.586Z,101555.38
2023-08-13T18:48:07.208Z,101543.94
2023-08-13T18:53:10.842Z,101553.91
2023-08-13T18:58:18.924Z,101547.81
2023-08-13T19:03:22.361Z,101549.72
2023-08-13T19:08:25.720Z,101557.91
2023-08-13T19:13:31.603Z,101550.88
2023-08-13T19:18:34.801Z,101557.22
2023-08-13T19:23:37.883Z,101570.59
2023-08-13T19:28:42.481Z,101575.03
2023-08-13T19:33:45.808Z,101570.56
2023-08-13T19:38:51.592Z,101575.91
2023-08-13T19:44:02.472Z,101582.16
2023-08-13T19:49:06.832Z,101582.13
2023-08-13T19:54:11.043Z,101599.06
2023-08-13T19:59:17.977Z,101606.13
2023-08-13T20:04:21.176Z,101602.53
2023-08-13T20:09:26.509Z,101601.56
2023-08-13T20:14:41.053Z,101610.41
2023-08-13T20:19:46.490Z,101611.25
2023-08-13T20:24:50.909Z,101609.41
2023-08-13T20:29:58.305Z,101605.78
2023-08-13T20:35:01.712Z,101610.19
2023-08-13T20:40:10.847Z,101598.50
2023-08-13T20:45:16.251Z,101599.31
2023-08-13T20:50:19.966Z,101609.88
2023-08-13T20:55:23.377Z,101604.50
2023-08-13T21:00:27.982Z,101605.28
2023-08-13T21:06:07.332Z,101602.50
2023-08-13T21:11:12.444Z,101605.00
2023-08-13T21:16:16.981Z,101599.59
2023-08-13T21:21:21.752Z,101598.59
2023-08-13T21:26:25.866Z,101586.97
2023-08-13T21:31:30.645Z,101599.34
2023-08-13T21:36:35.899Z,101594.78
2023-08-13T21:41:39.120Z,101595.56
2023-08-13T21:46:43.622Z,101603.47
2023-08-13T21:51:47.312Z,101595.47
2023-08-13T21:56:50.915Z,101607.00
2023-08-13T22:01:55.449Z,101607.72
2023-08-13T22:06:58.644Z,101608.53
2023-08-13T22:12:02.073Z,101605.78
2023-08-13T22:17:06.898Z,101621.72
2023-08-13T22:22:10.140Z,101627.78
2023-08-13T22:27:13.894Z,101626.78
2023-08-13T22:32:18.708Z,101632.91
2023-08-13T22:37:22.196Z,101624.03
2023-08-13T22:42:25.310Z,101628.34
2023-08-13T22:47:29.837Z,101620.25
2023-08-13T22:52:33.013Z,101627.28
2023-08-13T22:57:36.309Z,101626.22
2023-08-13T23:02:40.870Z,101620.97
2023-08-13T23:07:44.169Z,101631.53
2023-08-13T23:12:47.347Z,101622.56
2023-08-13T23:17:52.008Z,101623.34
2023-08-13T23:22:56.037Z,101625.88
2023-08-13T23:27:59.258Z,101622.25
2023-08-13T23:33:03.910Z,101624.00
2023-08-13T23:38:09.528Z,101624.78
2023-08-13T23:43:12.752Z,101610.53
2023-08-13T23:48:17.206Z,101601.50
2023-08-13T23:53:20.257Z,101600.56
2023-08-13T23:58:23.362Z,101607.50
